Terminal Aerodrome Forecast
Issued by NWS

Home | Current Version | Previous Version | Text Only | Print | Product List | Glossary On
Versions: 1 2 3 4 5 6 7 8 9 10 11 12 13 14 15
000
FTUS42 TJSJ 171400 AAA
TAFIST
TAF AMD
TIST 171445Z 1715/1812 10011KT P6SM VCSH SCT025 BKN050
      TEMPO 1715/1718 08015G24KT 4SM -SHRA BKN025
     FM171800 12014G20KT P6SM SCT022 SCT070
     FM172300 09010KT P6SM FEW025 SCT070=

USA.gov is the U.S. government's official web portal to all federal, state and local government web resources and services.